WXM80 ListenWXM80 Stop

You find our weather info also at:

UK Metoffice

WeatherCloud

Weather Underground

Northeastern Weather Network

AWEKAS

Citizen Weather Observer Program (CWOP)

HAMweather, WeatherForYou, PWS Weather


Weather Underground History page Text

Daily Summary for March 11, 2017 Units:  Both    English   Metric
« Previous Day
Next Day »
Daily Weekly Monthly Yearly Custom
  High: Low: Average:
Temperature: 28.4 °F /  -2 °C 17.6 °F /  -8 °C 23.2 °F /  -4.9 °C
Dew Point: 14.3 °F /  -9.8 °C 4.5 °F /  -15.3 °C 9.4 °F /  -12.6 °C
Humidity: 62 % 47 % 55 %
Wind Speed: 14.8 mph /  23.8 km/h - 8.4 mph /  13.5 km/h
Wind Gust: 26.5 mph /  42.6 km/h - -
Wind:- - WNW
Pressure: 30.23 in /  1023.6 hPa 29.96 in /  1014.4 hPa -
Precipitation: 0.00 in /  0 mm    
Historical Graphs
 
 
Tabular Data for March 11, 2017
Time Temperature Dew Point Pressure Wind Wind Speed Wind Gust Humidity Rainfall Rate (Hourly)
00:01 23.6 °F /  -4.7 °C 11.0 °F /  -11.7 °C 29.96 in /  1014.4 hPa SW 10.8 mph /  17.4 km/h 19.6 mph /  31.5 km/h 58 % 0.00 in /  0 mm
00:07 23.5 °F /  -4.7 °C 10.9 °F /  -11.7 °C 29.97 in /  1014.8 hPa NW 14.7 mph /  23.7 km/h 22.0 mph /  35.4 km/h 58 % 0.00 in /  0 mm
00:12 23.4 °F /  -4.8 °C 10.4 °F /  -12 °C 29.97 in /  1014.8 hPa NW 14.1 mph /  22.7 km/h 17.3 mph /  27.8 km/h 57 % 0.00 in /  0 mm
00:17 23.3 °F /  -4.8 °C 10.7 °F /  -11.8 °C 29.97 in /  1014.8 hPa WNW 12.0 mph /  19.3 km/h 17.3 mph /  27.8 km/h 58 % 0.00 in /  0 mm
00:22 23.2 °F /  -4.9 °C 10.2 °F /  -12.1 °C 29.98 in /  1015.1 hPa WNW 14.2 mph /  22.9 km/h 19.6 mph /  31.5 km/h 57 % 0.00 in /  0 mm
00:27 23.1 °F /  -4.9 °C 10.5 °F /  -11.9 °C 29.98 in /  1015.1 hPa NNW 9.1 mph /  14.6 km/h 10.4 mph /  16.7 km/h 58 % 0.00 in /  0 mm
00:32 23.0 °F /  -5 °C 10.8 °F /  -11.8 °C 29.98 in /  1015.1 hPa WNW 8.3 mph /  13.4 km/h 16.1 mph /  25.9 km/h 59 % 0.00 in /  0 mm
00:37 22.9 °F /  -5.1 °C 11.4 °F /  -11.4 °C 29.99 in /  1015.5 hPa NW 11.8 mph /  19 km/h 19.6 mph /  31.5 km/h 61 % 0.00 in /  0 mm
00:42 22.8 °F /  -5.1 °C 10.6 °F /  -11.9 °C 29.99 in /  1015.5 hPa WSW 9.7 mph /  15.6 km/h 19.6 mph /  31.5 km/h 59 % 0.00 in /  0 mm
00:47 22.7 °F /  -5.2 °C 10.9 °F /  -11.7 °C 30.00 in /  1015.8 hPa WNW 9.4 mph /  15.1 km/h 22.0 mph /  35.4 km/h 60 % 0.00 in /  0 mm
00:52 22.6 °F /  -5.2 °C 10.8 °F /  -11.8 °C 29.99 in /  1015.5 hPa WNW 7.8 mph /  12.6 km/h 16.1 mph /  25.9 km/h 60 % 0.00 in /  0 mm
00:57 22.5 °F /  -5.3 °C 11.4 °F /  -11.4 °C 30.00 in /  1015.8 hPa NNW 10.4 mph /  16.7 km/h 18.0 mph /  29 km/h 62 % 0.00 in /  0 mm
01:02 22.4 °F /  -5.3 °C 11.3 °F /  -11.5 °C 30.00 in /  1015.8 hPa NW 10.2 mph /  16.4 km/h 26.5 mph /  42.6 km/h 62 % 0.00 in /  0 mm
01:07 22.2 °F /  -5.4 °C 11.1 °F /  -11.6 °C 30.00 in /  1015.8 hPa NW 7.5 mph /  12.1 km/h 18.4 mph /  29.6 km/h 62 % 0.00 in /  0 mm
01:12 22.0 °F /  -5.6 °C 10.6 °F /  -11.9 °C 30.00 in /  1015.8 hPa NNW 12.5 mph /  20.1 km/h 23.0 mph /  37 km/h 61 % 0.00 in /  0 mm
01:17 21.8 °F /  -5.7 °C 10.0 °F /  -12.2 °C 29.99 in /  1015.5 hPa NNW 10.4 mph /  16.7 km/h 21.9 mph /  35.2 km/h 60 % 0.00 in /  0 mm
01:22 21.7 °F /  -5.7 °C 9.6 °F /  -12.4 °C 30.00 in /  1015.8 hPa WNW 12.2 mph /  19.6 km/h 23.0 mph /  37 km/h 59 % 0.00 in /  0 mm
01:27 21.6 °F /  -5.8 °C 9.5 °F /  -12.5 °C 30.00 in /  1015.8 hPa NW 7.5 mph /  12.1 km/h 17.3 mph /  27.8 km/h 59 % 0.00 in /  0 mm
01:32 21.4 °F /  -5.9 °C 9.3 °F /  -12.6 °C 30.00 in /  1015.8 hPa North 10.5 mph /  16.9 km/h 17.3 mph /  27.8 km/h 59 % 0.00 in /  0 mm
01:37 21.3 °F /  -5.9 °C 9.9 °F /  -12.3 °C 30.00 in /  1015.8 hPa NW 14.3 mph /  23 km/h 20.7 mph /  33.3 km/h 61 % 0.00 in /  0 mm
01:42 21.3 °F /  -5.9 °C 10.3 °F /  -12.1 °C 30.00 in /  1015.8 hPa NW 7.8 mph /  12.6 km/h 11.5 mph /  18.5 km/h 62 % 0.00 in /  0 mm
01:47 21.2 °F /  -6 °C 9.1 °F /  -12.7 °C 30.01 in /  1016.1 hPa NNW 8.7 mph /  14 km/h 19.6 mph /  31.5 km/h 59 % 0.00 in /  0 mm
01:52 21.1 °F /  -6.1 °C 8.6 °F /  -13 °C 30.01 in /  1016.1 hPa North 8.4 mph /  13.5 km/h 18.4 mph /  29.6 km/h 58 % 0.00 in /  0 mm
01:57 20.9 °F /  -6.2 °C 8.4 °F /  -13.1 °C 30.01 in /  1016.1 hPa NW 12.1 mph /  19.5 km/h 24.0 mph /  38.6 km/h 58 % 0.00 in /  0 mm
02:02 20.8 °F /  -6.2 °C 7.9 °F /  -13.4 °C 30.01 in /  1016.1 hPa NNW 12.2 mph /  19.6 km/h 23.0 mph /  37 km/h 57 % 0.00 in /  0 mm
02:07 20.7 °F /  -6.3 °C 8.6 °F /  -13 °C 30.01 in /  1016.1 hPa NNW 8.4 mph /  13.5 km/h 11.5 mph /  18.5 km/h 59 % 0.00 in /  0 mm
02:12 20.7 °F /  -6.3 °C 9.7 °F /  -12.4 °C 30.01 in /  1016.1 hPa WNW 8.3 mph /  13.4 km/h 17.3 mph /  27.8 km/h 62 % 0.00 in /  0 mm
02:17 20.6 °F /  -6.3 °C 9.6 °F /  -12.4 °C 30.02 in /  1016.5 hPa WNW 11.5 mph /  18.5 km/h 19.6 mph /  31.5 km/h 62 % 0.00 in /  0 mm
02:22 20.5 °F /  -6.4 °C 8.8 °F /  -12.9 °C 30.02 in /  1016.5 hPa WNW 9.0 mph /  14.5 km/h 16.1 mph /  25.9 km/h 60 % 0.00 in /  0 mm
02:27 20.4 °F /  -6.4 °C 8.3 °F /  -13.2 °C 30.02 in /  1016.5 hPa NW 4.6 mph /  7.4 km/h 11.5 mph /  18.5 km/h 59 % 0.00 in /  0 mm
02:32 20.3 °F /  -6.5 °C 7.9 °F /  -13.4 °C 30.01 in /  1016.1 hPa West 9.4 mph /  15.1 km/h 18.4 mph /  29.6 km/h 58 % 0.00 in /  0 mm
02:37 20.2 °F /  -6.6 °C 8.1 °F /  -13.3 °C 30.01 in /  1016.1 hPa WNW 8.5 mph /  13.7 km/h 13.8 mph /  22.2 km/h 59 % 0.00 in /  0 mm
02:42 20.1 °F /  -6.6 °C 8.1 °F /  -13.3 °C 30.01 in /  1016.1 hPa North 14.6 mph /  23.5 km/h 20.7 mph /  33.3 km/h 59 % 0.00 in /  0 mm
02:47 20.0 °F /  -6.7 °C 8.3 °F /  -13.2 °C 30.02 in /  1016.5 hPa WNW 9.7 mph /  15.6 km/h 21.9 mph /  35.2 km/h 60 % 0.00 in /  0 mm
02:52 19.9 °F /  -6.7 °C 7.9 °F /  -13.4 °C 30.01 in /  1016.1 hPa West 8.1 mph /  13 km/h 16.1 mph /  25.9 km/h 59 % 0.00 in /  0 mm
02:57 19.7 °F /  -6.8 °C 7.7 °F /  -13.5 °C 30.02 in /  1016.5 hPa WNW 6.2 mph /  10 km/h 15.0 mph /  24.1 km/h 59 % 0.00 in /  0 mm
03:02 19.6 °F /  -6.9 °C 7.6 °F /  -13.6 °C 30.02 in /  1016.5 hPa NW 8.1 mph /  13 km/h 16.1 mph /  25.9 km/h 59 % 0.00 in /  0 mm
03:07 19.5 °F /  -6.9 °C 7.9 °F /  -13.4 °C 30.02 in /  1016.5 hPa NW 6.2 mph /  10 km/h 19.6 mph /  31.5 km/h 60 % 0.00 in /  0 mm
03:12 19.4 °F /  -7 °C 7.8 °F /  -13.4 °C 30.02 in /  1016.5 hPa WNW 10.5 mph /  16.9 km/h 16.1 mph /  25.9 km/h 60 % 0.00 in /  0 mm
03:17 19.3 °F /  -7.1 °C 7.7 °F /  -13.5 °C 30.02 in /  1016.5 hPa SW 10.5 mph /  16.9 km/h 19.6 mph /  31.5 km/h 60 % 0.00 in /  0 mm
03:18 19.3 °F /  -7.1 °C 7.7 °F /  -13.5 °C 30.03 in /  1016.8 hPa WNW 9.7 mph /  15.6 km/h 16.1 mph /  25.9 km/h 60 % 0.00 in /  0 mm
03:23 19.3 °F /  -7.1 °C 8.4 °F /  -13.1 °C 30.02 in /  1016.5 hPa WNW 7.7 mph /  12.4 km/h 15.0 mph /  24.1 km/h 62 % 0.00 in /  0 mm
03:28 19.3 °F /  -7.1 °C 8.0 °F /  -13.3 °C 30.03 in /  1016.8 hPa WNW 9.4 mph /  15.1 km/h 17.3 mph /  27.8 km/h 61 % 0.00 in /  0 mm
03:33 19.2 °F /  -7.1 °C 8.3 °F /  -13.2 °C 30.03 in /  1016.8 hPa NW 7.4 mph /  11.9 km/h 13.0 mph /  20.9 km/h 62 % 0.00 in /  0 mm
03:38 19.2 °F /  -7.1 °C 8.3 °F /  -13.2 °C 30.03 in /  1016.8 hPa WNW 9.1 mph /  14.6 km/h 18.0 mph /  29 km/h 62 % 0.00 in /  0 mm
03:43 19.1 °F /  -7.2 °C 7.8 °F /  -13.4 °C 30.03 in /  1016.8 hPa NNW 7.2 mph /  11.6 km/h 11.5 mph /  18.5 km/h 61 % 0.00 in /  0 mm
03:48 19.0 °F /  -7.2 °C 7.0 °F /  -13.9 °C 30.03 in /  1016.8 hPa NW 7.5 mph /  12.1 km/h 19.6 mph /  31.5 km/h 59 % 0.00 in /  0 mm
03:53 19.0 °F /  -7.2 °C 7.0 °F /  -13.9 °C 30.03 in /  1016.8 hPa WNW 4.9 mph /  7.9 km/h 15.0 mph /  24.1 km/h 59 % 0.00 in /  0 mm
03:58 19.0 °F /  -7.2 °C 7.7 °F /  -13.5 °C 30.04 in /  1017.2 hPa NW 9.0 mph /  14.5 km/h 19.6 mph /  31.5 km/h 61 % 0.00 in /  0 mm
04:03 18.9 °F /  -7.3 °C 7.3 °F /  -13.7 °C 30.04 in /  1017.2 hPa NW 7.7 mph /  12.4 km/h 19.6 mph /  31.5 km/h 60 % 0.00 in /  0 mm
04:08 18.9 °F /  -7.3 °C 7.3 °F /  -13.7 °C 30.04 in /  1017.2 hPa WNW 8.3 mph /  13.4 km/h 19.6 mph /  31.5 km/h 60 % 0.00 in /  0 mm
04:14 18.9 °F /  -7.3 °C 7.7 °F /  -13.5 °C 30.04 in /  1017.2 hPa NW 7.5 mph /  12.1 km/h 18.4 mph /  29.6 km/h 61 % 0.00 in /  0 mm
04:19 18.8 °F /  -7.3 °C 7.6 °F /  -13.6 °C 30.05 in /  1017.5 hPa WNW 6.3 mph /  10.1 km/h 16.1 mph /  25.9 km/h 61 % 0.00 in /  0 mm
04:24 18.8 °F /  -7.3 °C 6.8 °F /  -14 °C 30.05 in /  1017.5 hPa NW 11.3 mph /  18.2 km/h 20.7 mph /  33.3 km/h 59 % 0.00 in /  0 mm
04:29 18.7 °F /  -7.4 °C 6.7 °F /  -14.1 °C 30.05 in /  1017.5 hPa WNW 10.5 mph /  16.9 km/h 17.3 mph /  27.8 km/h 59 % 0.00 in /  0 mm
04:34 18.6 °F /  -7.4 °C 6.3 °F /  -14.3 °C 30.05 in /  1017.5 hPa NW 7.7 mph /  12.4 km/h 14.0 mph /  22.5 km/h 58 % 0.00 in /  0 mm
04:39 18.4 °F /  -7.6 °C 6.4 °F /  -14.2 °C 30.05 in /  1017.5 hPa WNW 4.4 mph /  7.1 km/h 19.6 mph /  31.5 km/h 59 % 0.00 in /  0 mm
04:44 18.5 °F /  -7.5 °C 6.9 °F /  -13.9 °C 30.06 in /  1017.8 hPa WNW 4.5 mph /  7.2 km/h 18.4 mph /  29.6 km/h 60 % 0.00 in /  0 mm
04:49 18.4 °F /  -7.6 °C 6.8 °F /  -14 °C 30.06 in /  1017.8 hPa West 12.0 mph /  19.3 km/h 17.3 mph /  27.8 km/h 60 % 0.00 in /  0 mm
04:54 18.3 °F /  -7.6 °C 6.0 °F /  -14.4 °C 30.06 in /  1017.8 hPa NW 10.4 mph /  16.7 km/h 18.4 mph /  29.6 km/h 58 % 0.00 in /  0 mm
04:59 18.2 °F /  -7.7 °C 5.9 °F /  -14.5 °C 30.07 in /  1018.2 hPa WSW 6.4 mph /  10.3 km/h 16.1 mph /  25.9 km/h 58 % 0.00 in /  0 mm
05:04 18.1 °F /  -7.7 °C 6.2 °F /  -14.3 °C 30.07 in /  1018.2 hPa WNW 8.3 mph /  13.4 km/h 18.4 mph /  29.6 km/h 59 % 0.00 in /  0 mm
05:09 18.1 °F /  -7.7 °C 5.8 °F /  -14.6 °C 30.07 in /  1018.2 hPa NW 7.0 mph /  11.3 km/h 13.8 mph /  22.2 km/h 58 % 0.00 in /  0 mm
05:14 18.1 °F /  -7.7 °C 5.8 °F /  -14.6 °C 30.07 in /  1018.2 hPa WNW 7.5 mph /  12.1 km/h 19.6 mph /  31.5 km/h 58 % 0.00 in /  0 mm
05:19 18.1 °F /  -7.7 °C 6.2 °F /  -14.3 °C 30.08 in /  1018.5 hPa WNW 6.7 mph /  10.8 km/h 14.0 mph /  22.5 km/h 59 % 0.00 in /  0 mm
05:24 18.0 °F /  -7.8 °C 5.7 °F /  -14.6 °C 30.08 in /  1018.5 hPa NNW 9.3 mph /  15 km/h 16.1 mph /  25.9 km/h 58 % 0.00 in /  0 mm
05:29 17.9 °F /  -7.8 °C 5.2 °F /  -14.9 °C 30.08 in /  1018.5 hPa NW 9.2 mph /  14.8 km/h 19.6 mph /  31.5 km/h 57 % 0.00 in /  0 mm
05:34 17.8 °F /  -7.9 °C 4.7 °F /  -15.2 °C 30.09 in /  1018.8 hPa NW 7.9 mph /  12.7 km/h 15.0 mph /  24.1 km/h 56 % 0.00 in /  0 mm
05:39 17.8 °F /  -7.9 °C 5.1 °F /  -14.9 °C 30.09 in /  1018.8 hPa WNW 6.9 mph /  11.1 km/h 16.1 mph /  25.9 km/h 57 % 0.00 in /  0 mm
05:44 17.7 °F /  -7.9 °C 5.4 °F /  -14.8 °C 30.09 in /  1018.8 hPa NW 9.0 mph /  14.5 km/h 15.0 mph /  24.1 km/h 58 % 0.00 in /  0 mm
05:49 17.7 °F /  -7.9 °C 5.4 °F /  -14.8 °C 30.10 in /  1019.2 hPa West 9.8 mph /  15.8 km/h 19.6 mph /  31.5 km/h 58 % 0.00 in /  0 mm
05:54 17.7 °F /  -7.9 °C 5.0 °F /  -15 °C 30.10 in /  1019.2 hPa NW 7.8 mph /  12.6 km/h 19.6 mph /  31.5 km/h 57 % 0.00 in /  0 mm
05:59 17.7 °F /  -7.9 °C 5.4 °F /  -14.8 °C 30.10 in /  1019.2 hPa WSW 7.8 mph /  12.6 km/h 17.3 mph /  27.8 km/h 58 % 0.00 in /  0 mm
06:04 17.7 °F /  -7.9 °C 5.0 °F /  -15 °C 30.11 in /  1019.5 hPa West 4.3 mph /  6.9 km/h 20.7 mph /  33.3 km/h 57 % 0.00 in /  0 mm
06:09 17.7 °F /  -7.9 °C 5.0 °F /  -15 °C 30.11 in /  1019.5 hPa WNW 9.0 mph /  14.5 km/h 18.4 mph /  29.6 km/h 57 % 0.00 in /  0 mm
06:14 17.6 °F /  -8 °C 4.5 °F /  -15.3 °C 30.11 in /  1019.5 hPa West 8.0 mph /  12.9 km/h 21.9 mph /  35.2 km/h 56 % 0.00 in /  0 mm
06:19 17.6 °F /  -8 °C 4.9 °F /  -15.1 °C 30.11 in /  1019.5 hPa WNW 6.0 mph /  9.7 km/h 18.4 mph /  29.6 km/h 57 % 0.00 in /  0 mm
06:24 17.6 °F /  -8 °C 4.5 °F /  -15.3 °C 30.11 in /  1019.5 hPa NW 6.4 mph /  10.3 km/h 16.1 mph /  25.9 km/h 56 % 0.00 in /  0 mm
06:29 17.6 °F /  -8 °C 4.9 °F /  -15.1 °C 30.11 in /  1019.5 hPa West 5.0 mph /  8 km/h 11.5 mph /  18.5 km/h 57 % 0.00 in /  0 mm
06:34 17.7 °F /  -7.9 °C 5.0 °F /  -15 °C 30.11 in /  1019.5 hPa WNW 7.4 mph /  11.9 km/h 13.8 mph /  22.2 km/h 57 % 0.00 in /  0 mm
06:39 17.8 °F /  -7.9 °C 5.9 °F /  -14.5 °C 30.11 in /  1019.5 hPa NW 6.6 mph /  10.6 km/h 18.4 mph /  29.6 km/h 59 % 0.00 in /  0 mm
06:44 18.0 °F /  -7.8 °C 5.7 °F /  -14.6 °C 30.11 in /  1019.5 hPa NNW 6.5 mph /  10.5 km/h 12.0 mph /  19.3 km/h 58 % 0.00 in /  0 mm
06:49 18.2 °F /  -7.7 °C 5.9 °F /  -14.5 °C 30.12 in /  1019.9 hPa NW 10.9 mph /  17.5 km/h 19.6 mph /  31.5 km/h 58 % 0.00 in /  0 mm
06:54 18.4 °F /  -7.6 °C 5.7 °F /  -14.6 °C 30.12 in /  1019.9 hPa NW 14.8 mph /  23.8 km/h 26.5 mph /  42.6 km/h 57 % 0.00 in /  0 mm
06:59 18.4 °F /  -7.6 °C 5.7 °F /  -14.6 °C 30.13 in /  1020.2 hPa NW 12.1 mph /  19.5 km/h 18.4 mph /  29.6 km/h 57 % 0.00 in /  0 mm
07:04 18.6 °F /  -7.4 °C 5.9 °F /  -14.5 °C 30.13 in /  1020.2 hPa NW 10.1 mph /  16.3 km/h 19.6 mph /  31.5 km/h 57 % 0.00 in /  0 mm
07:09 18.8 °F /  -7.3 °C 6.1 °F /  -14.4 °C 30.13 in /  1020.2 hPa West 9.4 mph /  15.1 km/h 17.3 mph /  27.8 km/h 57 % 0.00 in /  0 mm
07:15 18.8 °F /  -7.3 °C 5.3 °F /  -14.8 °C 30.13 in /  1020.2 hPa WSW 9.0 mph /  14.5 km/h 11.5 mph /  18.5 km/h 55 % 0.00 in /  0 mm
07:20 19.0 °F /  -7.2 °C 5.9 °F /  -14.5 °C 30.13 in /  1020.2 hPa WNW 13.3 mph /  21.4 km/h 24.0 mph /  38.6 km/h 56 % 0.00 in /  0 mm
07:25 19.0 °F /  -7.2 °C 5.1 °F /  -14.9 °C 30.14 in /  1020.5 hPa WNW 7.6 mph /  12.2 km/h 16.1 mph /  25.9 km/h 54 % 0.00 in /  0 mm
07:30 19.2 °F /  -7.1 °C 6.4 °F /  -14.2 °C 30.13 in /  1020.2 hPa West 7.3 mph /  11.7 km/h 20.7 mph /  33.3 km/h 57 % 0.00 in /  0 mm
07:35 19.4 °F /  -7 °C 5.8 °F /  -14.6 °C 30.13 in /  1020.2 hPa WNW 8.6 mph /  13.8 km/h 17.3 mph /  27.8 km/h 55 % 0.00 in /  0 mm
07:40 19.4 °F /  -7 °C 5.8 °F /  -14.6 °C 30.14 in /  1020.5 hPa WNW 8.5 mph /  13.7 km/h 15.0 mph /  24.1 km/h 55 % 0.00 in /  0 mm
07:45 19.5 °F /  -6.9 °C 5.9 °F /  -14.5 °C 30.14 in /  1020.5 hPa WNW 9.6 mph /  15.4 km/h 18.4 mph /  29.6 km/h 55 % 0.00 in /  0 mm
07:50 19.7 °F /  -6.8 °C 5.7 °F /  -14.6 °C 30.14 in /  1020.5 hPa WNW 6.2 mph /  10 km/h 15.0 mph /  24.1 km/h 54 % 0.00 in /  0 mm
07:55 19.9 °F /  -6.7 °C 6.7 °F /  -14.1 °C 30.14 in /  1020.5 hPa WNW 10.9 mph /  17.5 km/h 18.4 mph /  29.6 km/h 56 % 0.00 in /  0 mm
08:00 19.9 °F /  -6.7 °C 6.3 °F /  -14.3 °C 30.14 in /  1020.5 hPa West 10.1 mph /  16.3 km/h 13.8 mph /  22.2 km/h 55 % 0.00 in /  0 mm
08:05 19.9 °F /  -6.7 °C 6.3 °F /  -14.3 °C 30.14 in /  1020.5 hPa WNW 7.4 mph /  11.9 km/h 15.0 mph /  24.1 km/h 55 % 0.00 in /  0 mm
08:10 20.0 °F /  -6.7 °C 6.4 °F /  -14.2 °C 30.14 in /  1020.5 hPa WNW 10.0 mph /  16.1 km/h 21.9 mph /  35.2 km/h 55 % 0.00 in /  0 mm
08:16 20.2 °F /  -6.6 °C 7.0 °F /  -13.9 °C 30.14 in /  1020.5 hPa WNW 8.8 mph /  14.2 km/h 16.1 mph /  25.9 km/h 56 % 0.00 in /  0 mm
08:21 20.4 °F /  -6.4 °C 8.0 °F /  -13.3 °C 30.14 in /  1020.5 hPa WNW 5.6 mph /  9 km/h 20.0 mph /  32.2 km/h 58 % 0.00 in /  0 mm
08:26 20.5 °F /  -6.4 °C 7.7 °F /  -13.5 °C 30.14 in /  1020.5 hPa WNW 7.2 mph /  11.6 km/h 13.8 mph /  22.2 km/h 57 % 0.00 in /  0 mm
08:31 20.7 °F /  -6.3 °C 7.9 °F /  -13.4 °C 30.14 in /  1020.5 hPa West 7.1 mph /  11.4 km/h 13.8 mph /  22.2 km/h 57 % 0.00 in /  0 mm
08:36 20.9 °F /  -6.2 °C 7.6 °F /  -13.6 °C 30.14 in /  1020.5 hPa West 7.3 mph /  11.7 km/h 11.5 mph /  18.5 km/h 56 % 0.00 in /  0 mm
08:41 21.1 °F /  -6.1 °C 8.2 °F /  -13.2 °C 30.14 in /  1020.5 hPa West 7.8 mph /  12.6 km/h 17.3 mph /  27.8 km/h 57 % 0.00 in /  0 mm
08:46 21.2 °F /  -6 °C 8.3 °F /  -13.2 °C 30.15 in /  1020.9 hPa NW 5.1 mph /  8.2 km/h 19.6 mph /  31.5 km/h 57 % 0.00 in /  0 mm
08:51 21.3 °F /  -5.9 °C 8.0 °F /  -13.3 °C 30.14 in /  1020.5 hPa WNW 6.4 mph /  10.3 km/h 11.5 mph /  18.5 km/h 56 % 0.00 in /  0 mm
08:56 21.4 °F /  -5.9 °C 7.7 °F /  -13.5 °C 30.14 in /  1020.5 hPa West 5.6 mph /  9 km/h 12.7 mph /  20.4 km/h 55 % 0.00 in /  0 mm
09:01 21.6 °F /  -5.8 °C 8.3 °F /  -13.2 °C 30.15 in /  1020.9 hPa NW 6.7 mph /  10.8 km/h 12.7 mph /  20.4 km/h 56 % 0.00 in /  0 mm
09:06 21.7 °F /  -5.7 °C 8.4 °F /  -13.1 °C 30.14 in /  1020.5 hPa WNW 8.4 mph /  13.5 km/h 15.0 mph /  24.1 km/h 56 % 0.00 in /  0 mm
09:11 21.7 °F /  -5.7 °C 7.6 °F /  -13.6 °C 30.14 in /  1020.5 hPa WSW 8.2 mph /  13.2 km/h 13.0 mph /  20.9 km/h 54 % 0.00 in /  0 mm
09:16 21.7 °F /  -5.7 °C 8.8 °F /  -12.9 °C 30.14 in /  1020.5 hPa WNW 7.7 mph /  12.4 km/h 11.5 mph /  18.5 km/h 57 % 0.00 in /  0 mm
09:22 21.7 °F /  -5.7 °C 8.4 °F /  -13.1 °C 30.14 in /  1020.5 hPa WNW 9.4 mph /  15.1 km/h 15.0 mph /  24.1 km/h 56 % 0.00 in /  0 mm
09:27 21.8 °F /  -5.7 °C 8.9 °F /  -12.8 °C 30.15 in /  1020.9 hPa SW 7.5 mph /  12.1 km/h 12.0 mph /  19.3 km/h 57 % 0.00 in /  0 mm
09:32 21.8 °F /  -5.7 °C 8.1 °F /  -13.3 °C 30.14 in /  1020.5 hPa NW 8.3 mph /  13.4 km/h 16.1 mph /  25.9 km/h 55 % 0.00 in /  0 mm
09:37 22.2 °F /  -5.4 °C 7.6 °F /  -13.6 °C 30.14 in /  1020.5 hPa WNW 11.2 mph /  18 km/h 21.9 mph /  35.2 km/h 53 % 0.00 in /  0 mm
09:42 22.5 °F /  -5.3 °C 7.5 °F /  -13.6 °C 30.14 in /  1020.5 hPa NW 10.1 mph /  16.3 km/h 18.4 mph /  29.6 km/h 52 % 0.00 in /  0 mm
09:47 22.5 °F /  -5.3 °C 8.3 °F /  -13.2 °C 30.14 in /  1020.5 hPa SSW 7.0 mph /  11.3 km/h 18.0 mph /  29 km/h 54 % 0.00 in /  0 mm
09:52 22.7 °F /  -5.2 °C 8.9 °F /  -12.8 °C 30.14 in /  1020.5 hPa WNW 5.1 mph /  8.2 km/h 10.4 mph /  16.7 km/h 55 % 0.00 in /  0 mm
09:57 23.0 °F /  -5 °C 8.8 °F /  -12.9 °C 30.14 in /  1020.5 hPa NW 7.7 mph /  12.4 km/h 17.3 mph /  27.8 km/h 54 % 0.00 in /  0 mm
10:02 23.0 °F /  -5 °C 9.2 °F /  -12.7 °C 30.13 in /  1020.2 hPa NW 6.4 mph /  10.3 km/h 15.0 mph /  24.1 km/h 55 % 0.00 in /  0 mm
10:07 23.1 °F /  -4.9 °C 9.3 °F /  -12.6 °C 30.14 in /  1020.5 hPa WNW 5.0 mph /  8 km/h 15.0 mph /  24.1 km/h 55 % 0.00 in /  0 mm
10:12 23.3 °F /  -4.8 °C 9.1 °F /  -12.7 °C 30.14 in /  1020.5 hPa WNW 4.8 mph /  7.7 km/h 11.5 mph /  18.5 km/h 54 % 0.00 in /  0 mm
10:17 23.4 °F /  -4.8 °C 9.6 °F /  -12.4 °C 30.14 in /  1020.5 hPa WNW 8.2 mph /  13.2 km/h 17.0 mph /  27.4 km/h 55 % 0.00 in /  0 mm
10:23 23.9 °F /  -4.5 °C 9.2 °F /  -12.7 °C 30.14 in /  1020.5 hPa WNW 6.8 mph /  10.9 km/h 19.6 mph /  31.5 km/h 53 % 0.00 in /  0 mm
10:27 24.0 °F /  -4.4 °C 9.7 °F /  -12.4 °C 30.14 in /  1020.5 hPa West 6.3 mph /  10.1 km/h 15.0 mph /  24.1 km/h 54 % 0.00 in /  0 mm
10:33 24.3 °F /  -4.3 °C 10.0 °F /  -12.2 °C 30.14 in /  1020.5 hPa North 6.8 mph /  10.9 km/h 12.7 mph /  20.4 km/h 54 % 0.00 in /  0 mm
10:37 24.2 °F /  -4.3 °C 10.7 °F /  -11.8 °C 30.14 in /  1020.5 hPa WNW 8.1 mph /  13 km/h 13.0 mph /  20.9 km/h 56 % 0.00 in /  0 mm
10:43 24.2 °F /  -4.3 °C 10.3 °F /  -12.1 °C 30.14 in /  1020.5 hPa NW 9.8 mph /  15.8 km/h 16.0 mph /  25.7 km/h 55 % 0.00 in /  0 mm
10:48 24.1 °F /  -4.4 °C 10.2 °F /  -12.1 °C 30.14 in /  1020.5 hPa West 7.5 mph /  12.1 km/h 15.0 mph /  24.1 km/h 55 % 0.00 in /  0 mm
10:53 24.7 °F /  -4.1 °C 10.0 °F /  -12.2 °C 30.14 in /  1020.5 hPa West 7.0 mph /  11.3 km/h 17.0 mph /  27.4 km/h 53 % 0.00 in /  0 mm
10:58 24.9 °F /  -3.9 °C 10.2 °F /  -12.1 °C 30.13 in /  1020.2 hPa West 11.5 mph /  18.5 km/h 18.4 mph /  29.6 km/h 53 % 0.00 in /  0 mm
11:03 25.2 °F /  -3.8 °C 9.6 °F /  -12.4 °C 30.13 in /  1020.2 hPa WNW 10.1 mph /  16.3 km/h 19.6 mph /  31.5 km/h 51 % 0.00 in /  0 mm
11:08 25.5 °F /  -3.6 °C 9.9 °F /  -12.3 °C 30.13 in /  1020.2 hPa WNW 9.2 mph /  14.8 km/h 16.1 mph /  25.9 km/h 51 % 0.00 in /  0 mm
11:13 25.7 °F /  -3.5 °C 10.0 °F /  -12.2 °C 30.12 in /  1019.9 hPa West 7.4 mph /  11.9 km/h 11.5 mph /  18.5 km/h 51 % 0.00 in /  0 mm
11:18 25.8 °F /  -3.4 °C 9.7 °F /  -12.4 °C 30.12 in /  1019.9 hPa WNW 11.6 mph /  18.7 km/h 16.1 mph /  25.9 km/h 50 % 0.00 in /  0 mm
11:23 25.8 °F /  -3.4 °C 9.2 °F /  -12.7 °C 30.12 in /  1019.9 hPa West 7.4 mph /  11.9 km/h 12.7 mph /  20.4 km/h 49 % 0.00 in /  0 mm
11:28 26.1 °F /  -3.3 °C 10.9 °F /  -11.7 °C 30.12 in /  1019.9 hPa NW 6.6 mph /  10.6 km/h 12.7 mph /  20.4 km/h 52 % 0.00 in /  0 mm
11:33 26.3 °F /  -3.2 °C 10.2 °F /  -12.1 °C 30.12 in /  1019.9 hPa WNW 8.3 mph /  13.4 km/h 15.0 mph /  24.1 km/h 50 % 0.00 in /  0 mm
11:38 25.9 °F /  -3.4 °C 9.8 °F /  -12.3 °C 30.12 in /  1019.9 hPa NNW 5.9 mph /  9.5 km/h 12.7 mph /  20.4 km/h 50 % 0.00 in /  0 mm
11:43 25.3 °F /  -3.7 °C 9.2 °F /  -12.7 °C 30.11 in /  1019.5 hPa NW 9.6 mph /  15.4 km/h 18.4 mph /  29.6 km/h 50 % 0.00 in /  0 mm
11:48 25.0 °F /  -3.9 °C 10.3 °F /  -12.1 °C 30.12 in /  1019.9 hPa WNW 5.5 mph /  8.9 km/h 10.4 mph /  16.7 km/h 53 % 0.00 in /  0 mm
11:53 25.2 °F /  -3.8 °C 9.1 °F /  -12.7 °C 30.12 in /  1019.9 hPa NW 6.6 mph /  10.6 km/h 11.5 mph /  18.5 km/h 50 % 0.00 in /  0 mm
11:58 25.4 °F /  -3.7 °C 9.8 °F /  -12.3 °C 30.12 in /  1019.9 hPa NW 6.9 mph /  11.1 km/h 17.3 mph /  27.8 km/h 51 % 0.00 in /  0 mm
12:03 25.2 °F /  -3.8 °C 9.6 °F /  -12.4 °C 30.12 in /  1019.9 hPa SW 6.7 mph /  10.8 km/h 11.5 mph /  18.5 km/h 51 % 0.00 in /  0 mm
12:08 25.1 °F /  -3.8 °C 9.9 °F /  -12.3 °C 30.11 in /  1019.5 hPa WSW 6.0 mph /  9.7 km/h 13.0 mph /  20.9 km/h 52 % 0.00 in /  0 mm
12:14 25.1 °F /  -3.8 °C 9.9 °F /  -12.3 °C 30.11 in /  1019.5 hPa SW 6.9 mph /  11.1 km/h 12.7 mph /  20.4 km/h 52 % 0.00 in /  0 mm
12:19 25.1 °F /  -3.8 °C 10.3 °F /  -12.1 °C 30.11 in /  1019.5 hPa West 7.1 mph /  11.4 km/h 15.0 mph /  24.1 km/h 53 % 0.00 in /  0 mm
12:24 25.3 °F /  -3.7 °C 11.4 °F /  -11.4 °C 30.11 in /  1019.5 hPa NNW 7.7 mph /  12.4 km/h 11.5 mph /  18.5 km/h 55 % 0.00 in /  0 mm
12:29 26.1 °F /  -3.3 °C 11.7 °F /  -11.3 °C 30.11 in /  1019.5 hPa NW 9.9 mph /  15.9 km/h 13.8 mph /  22.2 km/h 54 % 0.00 in /  0 mm
12:34 26.6 °F /  -3 °C 11.7 °F /  -11.3 °C 30.10 in /  1019.2 hPa WNW 7.7 mph /  12.4 km/h 12.7 mph /  20.4 km/h 53 % 0.00 in /  0 mm
12:39 27.0 °F /  -2.8 °C 11.7 °F /  -11.3 °C 30.10 in /  1019.2 hPa WSW 6.8 mph /  10.9 km/h 19.6 mph /  31.5 km/h 52 % 0.00 in /  0 mm
12:44 27.3 °F /  -2.6 °C 11.5 °F /  -11.4 °C 30.10 in /  1019.2 hPa WNW 7.6 mph /  12.2 km/h 16.1 mph /  25.9 km/h 51 % 0.00 in /  0 mm
12:49 27.4 °F /  -2.6 °C 12.1 °F /  -11.1 °C 30.10 in /  1019.2 hPa WNW 8.2 mph /  13.2 km/h 15.0 mph /  24.1 km/h 52 % 0.00 in /  0 mm
12:54 27.7 °F /  -2.4 °C 11.9 °F /  -11.2 °C 30.09 in /  1018.8 hPa NW 10.1 mph /  16.3 km/h 20.0 mph /  32.2 km/h 51 % 0.00 in /  0 mm
12:59 27.5 °F /  -2.5 °C 11.7 °F /  -11.3 °C 30.10 in /  1019.2 hPa NW 9.6 mph /  15.4 km/h 21.0 mph /  33.8 km/h 51 % 0.00 in /  0 mm
13:04 27.8 °F /  -2.3 °C 12.9 °F /  -10.6 °C 30.09 in /  1018.8 hPa NW 7.9 mph /  12.7 km/h 15.0 mph /  24.1 km/h 53 % 0.00 in /  0 mm
13:05 27.8 °F /  -2.3 °C 12.4 °F /  -10.9 °C 30.09 in /  1018.8 hPa NNW 8.3 mph /  13.4 km/h 15.0 mph /  24.1 km/h 52 % 0.00 in /  0 mm
13:10 28.2 °F /  -2.1 °C 13.7 °F /  -10.2 °C 30.09 in /  1018.8 hPa WNW 7.2 mph /  11.6 km/h 15.0 mph /  24.1 km/h 54 % 0.00 in /  0 mm
13:15 28.4 °F /  -2 °C 13.0 °F /  -10.6 °C 30.09 in /  1018.8 hPa West 10.9 mph /  17.5 km/h 19.6 mph /  31.5 km/h 52 % 0.00 in /  0 mm
13:20 28.1 °F /  -2.2 °C 11.4 °F /  -11.4 °C 30.09 in /  1018.8 hPa NW 5.4 mph /  8.7 km/h 19.6 mph /  31.5 km/h 49 % 0.00 in /  0 mm
13:25 28.0 °F /  -2.2 °C 11.7 °F /  -11.3 °C 30.09 in /  1018.8 hPa NNW 13.0 mph /  20.9 km/h 15.0 mph /  24.1 km/h 50 % 0.00 in /  0 mm
13:30 27.7 °F /  -2.4 °C 10.5 °F /  -11.9 °C 30.08 in /  1018.5 hPa WNW 10.5 mph /  16.9 km/h 20.7 mph /  33.3 km/h 48 % 0.00 in /  0 mm
13:35 27.5 °F /  -2.5 °C 11.3 °F /  -11.5 °C 30.08 in /  1018.5 hPa West 6.9 mph /  11.1 km/h 20.7 mph /  33.3 km/h 50 % 0.00 in /  0 mm
13:40 27.3 °F /  -2.6 °C 11.1 °F /  -11.6 °C 30.08 in /  1018.5 hPa WNW 9.0 mph /  14.5 km/h 16.1 mph /  25.9 km/h 50 % 0.00 in /  0 mm
13:45 27.3 °F /  -2.6 °C 10.2 °F /  -12.1 °C 30.08 in /  1018.5 hPa West 9.2 mph /  14.8 km/h 16.1 mph /  25.9 km/h 48 % 0.00 in /  0 mm
13:50 27.9 °F /  -2.3 °C 12.5 °F /  -10.8 °C 30.08 in /  1018.5 hPa North 7.2 mph /  11.6 km/h 17.3 mph /  27.8 km/h 52 % 0.00 in /  0 mm
13:55 28.2 °F /  -2.1 °C 11.5 °F /  -11.4 °C 30.09 in /  1018.8 hPa WNW 14.0 mph /  22.5 km/h 26.5 mph /  42.6 km/h 49 % 0.00 in /  0 mm
14:00 28.1 °F /  -2.2 °C 10.4 °F /  -12 °C 30.09 in /  1018.8 hPa WNW 9.7 mph /  15.6 km/h 19.6 mph /  31.5 km/h 47 % 0.00 in /  0 mm
14:05 28.1 °F /  -2.2 °C 10.9 °F /  -11.7 °C 30.08 in /  1018.5 hPa NNW 9.8 mph /  15.8 km/h 16.1 mph /  25.9 km/h 48 % 0.00 in /  0 mm
14:11 28.2 °F /  -2.1 °C 11.9 °F /  -11.2 °C 30.08 in /  1018.5 hPa NW 9.6 mph /  15.4 km/h 25.3 mph /  40.7 km/h 50 % 0.00 in /  0 mm
14:15 27.9 °F /  -2.3 °C 11.2 °F /  -11.6 °C 30.08 in /  1018.5 hPa WNW 9.5 mph /  15.3 km/h 16.1 mph /  25.9 km/h 49 % 0.00 in /  0 mm
14:21 27.4 °F /  -2.6 °C 11.6 °F /  -11.3 °C 30.08 in /  1018.5 hPa NNW 7.8 mph /  12.6 km/h 18.4 mph /  29.6 km/h 51 % 0.00 in /  0 mm
14:26 27.4 °F /  -2.6 °C 11.6 °F /  -11.3 °C 30.08 in /  1018.5 hPa West 6.7 mph /  10.8 km/h 12.7 mph /  20.4 km/h 51 % 0.00 in /  0 mm
14:31 27.5 °F /  -2.5 °C 11.3 °F /  -11.5 °C 30.07 in /  1018.2 hPa WNW 6.1 mph /  9.8 km/h 21.9 mph /  35.2 km/h 50 % 0.00 in /  0 mm
14:36 27.7 °F /  -2.4 °C 11.5 °F /  -11.4 °C 30.07 in /  1018.2 hPa NW 8.4 mph /  13.5 km/h 19.6 mph /  31.5 km/h 50 % 0.00 in /  0 mm
14:41 28.0 °F /  -2.2 °C 12.6 °F /  -10.8 °C 30.07 in /  1018.2 hPa West 9.0 mph /  14.5 km/h 15.0 mph /  24.1 km/h 52 % 0.00 in /  0 mm
14:46 28.3 °F /  -2.1 °C 12.0 °F /  -11.1 °C 30.07 in /  1018.2 hPa NW 7.9 mph /  12.7 km/h 19.6 mph /  31.5 km/h 50 % 0.00 in /  0 mm
14:51 28.3 °F /  -2.1 °C 12.5 °F /  -10.8 °C 30.08 in /  1018.5 hPa WNW 9.3 mph /  15 km/h 14.0 mph /  22.5 km/h 51 % 0.00 in /  0 mm
14:56 28.1 °F /  -2.2 °C 11.8 °F /  -11.2 °C 30.08 in /  1018.5 hPa WNW 5.5 mph /  8.9 km/h 12.0 mph /  19.3 km/h 50 % 0.00 in /  0 mm
15:01 27.9 °F /  -2.3 °C 11.2 °F /  -11.6 °C 30.08 in /  1018.5 hPa WNW 12.6 mph /  20.3 km/h 19.6 mph /  31.5 km/h 49 % 0.00 in /  0 mm
15:06 27.7 °F /  -2.4 °C 11.0 °F /  -11.7 °C 30.08 in /  1018.5 hPa West 8.3 mph /  13.4 km/h 17.3 mph /  27.8 km/h 49 % 0.00 in /  0 mm
15:11 27.7 °F /  -2.4 °C 11.5 °F /  -11.4 °C 30.08 in /  1018.5 hPa NNW 5.8 mph /  9.3 km/h 12.7 mph /  20.4 km/h 50 % 0.00 in /  0 mm
15:16 27.8 °F /  -2.3 °C 11.1 °F /  -11.6 °C 30.08 in /  1018.5 hPa WNW 11.2 mph /  18 km/h 13.8 mph /  22.2 km/h 49 % 0.00 in /  0 mm
15:21 27.8 °F /  -2.3 °C 11.5 °F /  -11.4 °C 30.08 in /  1018.5 hPa WNW 5.8 mph /  9.3 km/h 9.2 mph /  14.8 km/h 50 % 0.00 in /  0 mm
15:26 27.9 °F /  -2.3 °C 12.1 °F /  -11.1 °C 30.08 in /  1018.5 hPa NW 9.9 mph /  15.9 km/h 15.0 mph /  24.1 km/h 51 % 0.00 in /  0 mm
15:31 27.8 °F /  -2.3 °C 12.4 °F /  -10.9 °C 30.08 in /  1018.5 hPa West 6.0 mph /  9.7 km/h 12.7 mph /  20.4 km/h 52 % 0.00 in /  0 mm
15:37 27.9 °F /  -2.3 °C 12.5 °F /  -10.8 °C 30.08 in /  1018.5 hPa NNW 7.1 mph /  11.4 km/h 12.0 mph /  19.3 km/h 52 % 0.00 in /  0 mm
15:42 27.8 °F /  -2.3 °C 12.4 °F /  -10.9 °C 30.08 in /  1018.5 hPa West 5.2 mph /  8.4 km/h 13.8 mph /  22.2 km/h 52 % 0.00 in /  0 mm
15:47 27.8 °F /  -2.3 °C 12.4 °F /  -10.9 °C 30.08 in /  1018.5 hPa WNW 7.3 mph /  11.7 km/h 9.2 mph /  14.8 km/h 52 % 0.00 in /  0 mm
15:52 27.7 °F /  -2.4 °C 12.3 °F /  -10.9 °C 30.08 in /  1018.5 hPa West 5.7 mph /  9.2 km/h 13.8 mph /  22.2 km/h 52 % 0.00 in /  0 mm
15:57 27.7 °F /  -2.4 °C 13.2 °F /  -10.4 °C 30.08 in /  1018.5 hPa WNW 9.8 mph /  15.8 km/h 16.1 mph /  25.9 km/h 54 % 0.00 in /  0 mm
16:02 27.4 °F /  -2.6 °C 12.9 °F /  -10.6 °C 30.08 in /  1018.5 hPa WNW 7.8 mph /  12.6 km/h 16.1 mph /  25.9 km/h 54 % 0.00 in /  0 mm
16:07 27.2 °F /  -2.7 °C 12.7 °F /  -10.7 °C 30.08 in /  1018.5 hPa WNW 6.9 mph /  11.1 km/h 15.0 mph /  24.1 km/h 54 % 0.00 in /  0 mm
16:12 27.1 °F /  -2.7 °C 12.6 °F /  -10.8 °C 30.09 in /  1018.8 hPa West 8.6 mph /  13.8 km/h 23.0 mph /  37 km/h 54 % 0.00 in /  0 mm
16:17 27.0 °F /  -2.8 °C 12.5 °F /  -10.8 °C 30.08 in /  1018.5 hPa NW 9.2 mph /  14.8 km/h 15.0 mph /  24.1 km/h 54 % 0.00 in /  0 mm
16:22 26.9 °F /  -2.8 °C 12.5 °F /  -10.8 °C 30.09 in /  1018.8 hPa WNW 10.1 mph /  16.3 km/h 18.4 mph /  29.6 km/h 54 % 0.00 in /  0 mm
16:27 26.9 °F /  -2.8 °C 13.3 °F /  -10.4 °C 30.09 in /  1018.8 hPa WNW 9.2 mph /  14.8 km/h 20.7 mph /  33.3 km/h 56 % 0.00 in /  0 mm
16:32 26.8 °F /  -2.9 °C 12.8 °F /  -10.7 °C 30.09 in /  1018.8 hPa WNW 7.3 mph /  11.7 km/h 11.5 mph /  18.5 km/h 55 % 0.00 in /  0 mm
16:37 26.9 °F /  -2.8 °C 12.5 °F /  -10.8 °C 30.09 in /  1018.8 hPa NW 13.5 mph /  21.7 km/h 19.6 mph /  31.5 km/h 54 % 0.00 in /  0 mm
16:42 26.9 °F /  -2.8 °C 12.9 °F /  -10.6 °C 30.09 in /  1018.8 hPa WSW 8.6 mph /  13.8 km/h 15.0 mph /  24.1 km/h 55 % 0.00 in /  0 mm
16:47 26.7 °F /  -2.9 °C 11.8 °F /  -11.2 °C 30.09 in /  1018.8 hPa WNW 7.9 mph /  12.7 km/h 20.7 mph /  33.3 km/h 53 % 0.00 in /  0 mm
16:52 26.6 °F /  -3 °C 12.2 °F /  -11 °C 30.09 in /  1018.8 hPa West 9.3 mph /  15 km/h 11.5 mph /  18.5 km/h 54 % 0.00 in /  0 mm
16:57 26.6 °F /  -3 °C 12.6 °F /  -10.8 °C 30.09 in /  1018.8 hPa WNW 5.6 mph /  9 km/h 17.3 mph /  27.8 km/h 55 % 0.00 in /  0 mm
17:03 26.7 °F /  -2.9 °C 13.1 °F /  -10.5 °C 30.09 in /  1018.8 hPa NW 7.1 mph /  11.4 km/h 16.1 mph /  25.9 km/h 56 % 0.00 in /  0 mm
17:08 26.7 °F /  -2.9 °C 14.3 °F /  -9.8 °C 30.10 in /  1019.2 hPa West 8.9 mph /  14.3 km/h 13.0 mph /  20.9 km/h 59 % 0.00 in /  0 mm
17:13 26.7 °F /  -2.9 °C 13.9 °F /  -10.1 °C 30.10 in /  1019.2 hPa WNW 7.1 mph /  11.4 km/h 12.0 mph /  19.3 km/h 58 % 0.00 in /  0 mm
17:18 26.6 °F /  -3 °C 12.6 °F /  -10.8 °C 30.10 in /  1019.2 hPa WNW 6.2 mph /  10 km/h 19.6 mph /  31.5 km/h 55 % 0.00 in /  0 mm
17:23 26.6 °F /  -3 °C 12.2 °F /  -11 °C 30.10 in /  1019.2 hPa WNW 13.0 mph /  20.9 km/h 25.0 mph /  40.2 km/h 54 % 0.00 in /  0 mm
17:28 26.6 °F /  -3 °C 11.7 °F /  -11.3 °C 30.10 in /  1019.2 hPa WNW 13.0 mph /  20.9 km/h 18.0 mph /  29 km/h 53 % 0.00 in /  0 mm
17:33 26.6 °F /  -3 °C 10.0 °F /  -12.2 °C 30.10 in /  1019.2 hPa WNW 12.0 mph /  19.3 km/h 21.0 mph /  33.8 km/h 49 % 0.00 in /  0 mm
17:38 26.6 °F /  -3 °C 11.3 °F /  -11.5 °C 30.11 in /  1019.5 hPa WNW 6.0 mph /  9.7 km/h 20.0 mph /  32.2 km/h 52 % 0.00 in /  0 mm
17:43 26.6 °F /  -3 °C 11.3 °F /  -11.5 °C 30.11 in /  1019.5 hPa WNW 8.0 mph /  12.9 km/h 18.0 mph /  29 km/h 52 % 0.00 in /  0 mm
17:48 26.5 °F /  -3.1 °C 10.8 °F /  -11.8 °C 30.11 in /  1019.5 hPa West 13.2 mph /  21.2 km/h 18.0 mph /  29 km/h 51 % 0.00 in /  0 mm
17:53 26.4 °F /  -3.1 °C 9.8 °F /  -12.3 °C 30.11 in /  1019.5 hPa WNW 10.0 mph /  16.1 km/h 22.0 mph /  35.4 km/h 49 % 0.00 in /  0 mm
17:58 26.2 °F /  -3.2 °C 10.1 °F /  -12.2 °C 30.11 in /  1019.5 hPa WSW 5.9 mph /  9.5 km/h 13.8 mph /  22.2 km/h 50 % 0.00 in /  0 mm
18:03 26.1 °F /  -3.3 °C 11.3 °F /  -11.5 °C 30.12 in /  1019.9 hPa WNW 7.6 mph /  12.2 km/h 13.0 mph /  20.9 km/h 53 % 0.00 in /  0 mm
18:08 26.1 °F /  -3.3 °C 12.1 °F /  -11.1 °C 30.12 in /  1019.9 hPa WNW 8.6 mph /  13.8 km/h 13.0 mph /  20.9 km/h 55 % 0.00 in /  0 mm
18:13 26.0 °F /  -3.3 °C 12.0 °F /  -11.1 °C 30.12 in /  1019.9 hPa NW 6.6 mph /  10.6 km/h 11.5 mph /  18.5 km/h 55 % 0.00 in /  0 mm
18:18 26.0 °F /  -3.3 °C 12.4 °F /  -10.9 °C 30.12 in /  1019.9 hPa NNW 9.0 mph /  14.5 km/h 15.0 mph /  24.1 km/h 56 % 0.00 in /  0 mm
18:23 25.9 °F /  -3.4 °C 11.1 °F /  -11.6 °C 30.12 in /  1019.9 hPa NNE 5.9 mph /  9.5 km/h 11.5 mph /  18.5 km/h 53 % 0.00 in /  0 mm
18:28 25.8 °F /  -3.4 °C 11.0 °F /  -11.7 °C 30.13 in /  1020.2 hPa NNW 8.2 mph /  13.2 km/h 19.6 mph /  31.5 km/h 53 % 0.00 in /  0 mm
18:33 25.7 °F /  -3.5 °C 11.3 °F /  -11.5 °C 30.13 in /  1020.2 hPa NW 7.2 mph /  11.6 km/h 15.0 mph /  24.1 km/h 54 % 0.00 in /  0 mm
18:38 25.7 °F /  -3.5 °C 11.3 °F /  -11.5 °C 30.13 in /  1020.2 hPa NW 4.6 mph /  7.4 km/h 13.8 mph /  22.2 km/h 54 % 0.00 in /  0 mm
18:43 25.6 °F /  -3.6 °C 11.7 °F /  -11.3 °C 30.14 in /  1020.5 hPa NW 6.2 mph /  10 km/h 11.5 mph /  18.5 km/h 55 % 0.00 in /  0 mm
18:48 25.6 °F /  -3.6 °C 12.1 °F /  -11.1 °C 30.14 in /  1020.5 hPa WNW 11.3 mph /  18.2 km/h 15.0 mph /  24.1 km/h 56 % 0.00 in /  0 mm
18:54 25.5 °F /  -3.6 °C 12.0 °F /  -11.1 °C 30.15 in /  1020.9 hPa WNW 9.4 mph /  15.1 km/h 19.6 mph /  31.5 km/h 56 % 0.00 in /  0 mm
18:59 25.3 °F /  -3.7 °C 11.4 °F /  -11.4 °C 30.14 in /  1020.5 hPa NNW 12.2 mph /  19.6 km/h 19.6 mph /  31.5 km/h 55 % 0.00 in /  0 mm
19:04 25.3 °F /  -3.7 °C 11.4 °F /  -11.4 °C 30.14 in /  1020.5 hPa NNW 8.0 mph /  12.9 km/h 12.7 mph /  20.4 km/h 55 % 0.00 in /  0 mm
19:09 25.2 °F /  -3.8 °C 11.3 °F /  -11.5 °C 30.15 in /  1020.9 hPa NW 8.0 mph /  12.9 km/h 16.1 mph /  25.9 km/h 55 % 0.00 in /  0 mm
19:14 25.1 °F /  -3.8 °C 11.2 °F /  -11.6 °C 30.15 in /  1020.9 hPa WNW 8.5 mph /  13.7 km/h 13.8 mph /  22.2 km/h 55 % 0.00 in /  0 mm
19:19 25.0 °F /  -3.9 °C 11.1 °F /  -11.6 °C 30.15 in /  1020.9 hPa NW 9.2 mph /  14.8 km/h 15.0 mph /  24.1 km/h 55 % 0.00 in /  0 mm
19:24 24.9 °F /  -3.9 °C 11.0 °F /  -11.7 °C 30.15 in /  1020.9 hPa WNW 8.8 mph /  14.2 km/h 19.6 mph /  31.5 km/h 55 % 0.00 in /  0 mm
19:29 24.8 °F /  -4 °C 10.9 °F /  -11.7 °C 30.15 in /  1020.9 hPa WNW 7.1 mph /  11.4 km/h 16.1 mph /  25.9 km/h 55 % 0.00 in /  0 mm
19:34 24.8 °F /  -4 °C 11.3 °F /  -11.5 °C 30.15 in /  1020.9 hPa WNW 5.0 mph /  8 km/h 10.4 mph /  16.7 km/h 56 % 0.00 in /  0 mm
19:39 24.6 °F /  -4.1 °C 10.7 °F /  -11.8 °C 30.16 in /  1021.2 hPa WNW 6.5 mph /  10.5 km/h 15.0 mph /  24.1 km/h 55 % 0.00 in /  0 mm
19:44 24.6 °F /  -4.1 °C 10.7 °F /  -11.8 °C 30.15 in /  1020.9 hPa NW 8.4 mph /  13.5 km/h 13.8 mph /  22.2 km/h 55 % 0.00 in /  0 mm
19:49 24.5 °F /  -4.2 °C 11.0 °F /  -11.7 °C 30.16 in /  1021.2 hPa NNW 10.2 mph /  16.4 km/h 19.6 mph /  31.5 km/h 56 % 0.00 in /  0 mm
19:54 24.4 °F /  -4.2 °C 10.9 °F /  -11.7 °C 30.16 in /  1021.2 hPa WNW 11.5 mph /  18.5 km/h 18.4 mph /  29.6 km/h 56 % 0.00 in /  0 mm
19:59 24.3 °F /  -4.3 °C 10.8 °F /  -11.8 °C 30.16 in /  1021.2 hPa WNW 6.7 mph /  10.8 km/h 13.8 mph /  22.2 km/h 56 % 0.00 in /  0 mm
20:04 24.3 °F /  -4.3 °C 10.8 °F /  -11.8 °C 30.16 in /  1021.2 hPa NW 9.4 mph /  15.1 km/h 17.3 mph /  27.8 km/h 56 % 0.00 in /  0 mm
20:09 24.2 °F /  -4.3 °C 10.3 °F /  -12.1 °C 30.16 in /  1021.2 hPa NW 10.8 mph /  17.4 km/h 19.6 mph /  31.5 km/h 55 % 0.00 in /  0 mm
20:14 24.1 °F /  -4.4 °C 10.2 °F /  -12.1 °C 30.17 in /  1021.6 hPa WNW 9.2 mph /  14.8 km/h 15.0 mph /  24.1 km/h 55 % 0.00 in /  0 mm
20:19 24.0 °F /  -4.4 °C 10.2 °F /  -12.1 °C 30.17 in /  1021.6 hPa NNW 9.1 mph /  14.6 km/h 15.0 mph /  24.1 km/h 55 % 0.00 in /  0 mm
20:24 24.0 °F /  -4.4 °C 10.6 °F /  -11.9 °C 30.17 in /  1021.6 hPa NW 8.5 mph /  13.7 km/h 16.0 mph /  25.7 km/h 56 % 0.00 in /  0 mm
20:29 24.0 °F /  -4.4 °C 10.6 °F /  -11.9 °C 30.18 in /  1021.9 hPa WNW 11.4 mph /  18.3 km/h 17.0 mph /  27.4 km/h 56 % 0.00 in /  0 mm
20:34 24.0 °F /  -4.4 °C 10.6 °F /  -11.9 °C 30.18 in /  1021.9 hPa WNW 6.8 mph /  10.9 km/h 12.7 mph /  20.4 km/h 56 % 0.00 in /  0 mm
20:39 24.0 °F /  -4.4 °C 10.6 °F /  -11.9 °C 30.18 in /  1021.9 hPa WNW 12.0 mph /  19.3 km/h 19.0 mph /  30.6 km/h 56 % 0.00 in /  0 mm
20:44 23.9 °F /  -4.5 °C 10.5 °F /  -11.9 °C 30.18 in /  1021.9 hPa NW 6.9 mph /  11.1 km/h 16.0 mph /  25.7 km/h 56 % 0.00 in /  0 mm
20:49 23.9 °F /  -4.5 °C 10.1 °F /  -12.2 °C 30.17 in /  1021.6 hPa NW 6.9 mph /  11.1 km/h 15.0 mph /  24.1 km/h 55 % 0.00 in /  0 mm
20:54 23.9 °F /  -4.5 °C 10.1 °F /  -12.2 °C 30.17 in /  1021.6 hPa WNW 6.9 mph /  11.1 km/h 15.0 mph /  24.1 km/h 55 % 0.00 in /  0 mm
20:55 23.9 °F /  -4.5 °C 10.1 °F /  -12.2 °C 30.18 in /  1021.9 hPa West 9.2 mph /  14.8 km/h 19.6 mph /  31.5 km/h 55 % 0.00 in /  0 mm
21:00 23.9 °F /  -4.5 °C 10.5 °F /  -11.9 °C 30.18 in /  1021.9 hPa NW 9.2 mph /  14.8 km/h 16.1 mph /  25.9 km/h 56 % 0.00 in /  0 mm
21:05 23.8 °F /  -4.6 °C 10.4 °F /  -12 °C 30.18 in /  1021.9 hPa NW 8.9 mph /  14.3 km/h 16.1 mph /  25.9 km/h 56 % 0.00 in /  0 mm
21:10 23.9 °F /  -4.5 °C 10.9 °F /  -11.7 °C 30.18 in /  1021.9 hPa WNW 7.1 mph /  11.4 km/h 12.7 mph /  20.4 km/h 57 % 0.00 in /  0 mm
21:15 23.9 °F /  -4.5 °C 10.5 °F /  -11.9 °C 30.18 in /  1021.9 hPa WNW 8.9 mph /  14.3 km/h 23.0 mph /  37 km/h 56 % 0.00 in /  0 mm
21:20 23.8 °F /  -4.6 °C 10.0 °F /  -12.2 °C 30.19 in /  1022.2 hPa NW 9.4 mph /  15.1 km/h 17.3 mph /  27.8 km/h 55 % 0.00 in /  0 mm
21:25 23.7 °F /  -4.6 °C 9.9 °F /  -12.3 °C 30.19 in /  1022.2 hPa West 7.8 mph /  12.6 km/h 13.8 mph /  22.2 km/h 55 % 0.00 in /  0 mm
21:30 23.6 °F /  -4.7 °C 8.5 °F /  -13.1 °C 30.19 in /  1022.2 hPa WNW 7.0 mph /  11.3 km/h 13.8 mph /  22.2 km/h 52 % 0.00 in /  0 mm
21:35 23.4 °F /  -4.8 °C 8.8 °F /  -12.9 °C 30.19 in /  1022.2 hPa WNW 8.0 mph /  12.9 km/h 15.0 mph /  24.1 km/h 53 % 0.00 in /  0 mm
21:41 23.4 °F /  -4.8 °C 8.8 °F /  -12.9 °C 30.19 in /  1022.2 hPa NNW 6.9 mph /  11.1 km/h 13.8 mph /  22.2 km/h 53 % 0.00 in /  0 mm
21:46 23.4 °F /  -4.8 °C 8.8 °F /  -12.9 °C 30.20 in /  1022.6 hPa NNW 10.1 mph /  16.3 km/h 20.7 mph /  33.3 km/h 53 % 0.00 in /  0 mm
21:51 23.3 °F /  -4.8 °C 9.1 °F /  -12.7 °C 30.19 in /  1022.2 hPa NW 8.2 mph /  13.2 km/h 15.0 mph /  24.1 km/h 54 % 0.00 in /  0 mm
21:56 23.3 °F /  -4.8 °C 9.1 °F /  -12.7 °C 30.20 in /  1022.6 hPa WNW 8.7 mph /  14 km/h 17.3 mph /  27.8 km/h 54 % 0.00 in /  0 mm
22:01 23.3 °F /  -4.8 °C 9.5 °F /  -12.5 °C 30.20 in /  1022.6 hPa WNW 3.1 mph /  5 km/h 8.1 mph /  13 km/h 55 % 0.00 in /  0 mm
22:06 23.2 °F /  -4.9 °C 9.0 °F /  -12.8 °C 30.20 in /  1022.6 hPa WNW 6.9 mph /  11.1 km/h 15.0 mph /  24.1 km/h 54 % 0.00 in /  0 mm
22:11 23.1 °F /  -4.9 °C 8.5 °F /  -13.1 °C 30.20 in /  1022.6 hPa WSW 6.4 mph /  10.3 km/h 12.7 mph /  20.4 km/h 53 % 0.00 in /  0 mm
22:16 23.0 °F /  -5 °C 8.4 °F /  -13.1 °C 30.20 in /  1022.6 hPa WNW 7.3 mph /  11.7 km/h 12.7 mph /  20.4 km/h 53 % 0.00 in /  0 mm
22:21 23.0 °F /  -5 °C 9.2 °F /  -12.7 °C 30.21 in /  1022.9 hPa NW 5.9 mph /  9.5 km/h 13.8 mph /  22.2 km/h 55 % 0.00 in /  0 mm
22:26 23.0 °F /  -5 °C 8.8 °F /  -12.9 °C 30.20 in /  1022.6 hPa NW 8.8 mph /  14.2 km/h 18.4 mph /  29.6 km/h 54 % 0.00 in /  0 mm
22:31 22.9 °F /  -5.1 °C 8.3 °F /  -13.2 °C 30.21 in /  1022.9 hPa NW 12.6 mph /  20.3 km/h 21.9 mph /  35.2 km/h 53 % 0.00 in /  0 mm
22:36 22.9 °F /  -5.1 °C 7.9 °F /  -13.4 °C 30.20 in /  1022.6 hPa NW 9.5 mph /  15.3 km/h 19.6 mph /  31.5 km/h 52 % 0.00 in /  0 mm
22:41 22.8 °F /  -5.1 °C 8.6 °F /  -13 °C 30.20 in /  1022.6 hPa West 7.8 mph /  12.6 km/h 14.0 mph /  22.5 km/h 54 % 0.00 in /  0 mm
22:46 22.8 °F /  -5.1 °C 8.6 °F /  -13 °C 30.21 in /  1022.9 hPa NW 10.5 mph /  16.9 km/h 18.4 mph /  29.6 km/h 54 % 0.00 in /  0 mm
22:51 22.8 °F /  -5.1 °C 8.6 °F /  -13 °C 30.20 in /  1022.6 hPa NW 9.5 mph /  15.3 km/h 19.6 mph /  31.5 km/h 54 % 0.00 in /  0 mm
22:56 22.7 °F /  -5.2 °C 8.5 °F /  -13.1 °C 30.20 in /  1022.6 hPa NW 8.4 mph /  13.5 km/h 16.1 mph /  25.9 km/h 54 % 0.00 in /  0 mm
23:01 22.7 °F /  -5.2 °C 8.5 °F /  -13.1 °C 30.20 in /  1022.6 hPa West 7.5 mph /  12.1 km/h 12.0 mph /  19.3 km/h 54 % 0.00 in /  0 mm
23:06 22.6 °F /  -5.2 °C 8.8 °F /  -12.9 °C 30.21 in /  1022.9 hPa WNW 6.6 mph /  10.6 km/h 11.0 mph /  17.7 km/h 55 % 0.00 in /  0 mm
23:11 22.6 °F /  -5.2 °C 9.2 °F /  -12.7 °C 30.21 in /  1022.9 hPa WNW 5.9 mph /  9.5 km/h 11.5 mph /  18.5 km/h 56 % 0.00 in /  0 mm
23:17 22.5 °F /  -5.3 °C 8.7 °F /  -12.9 °C 30.22 in /  1023.2 hPa NW 9.9 mph /  15.9 km/h 14.0 mph /  22.5 km/h 55 % 0.00 in /  0 mm
23:21 22.5 °F /  -5.3 °C 8.3 °F /  -13.2 °C 30.21 in /  1022.9 hPa West 5.0 mph /  8 km/h 11.5 mph /  18.5 km/h 54 % 0.00 in /  0 mm
23:26 22.4 °F /  -5.3 °C 8.2 °F /  -13.2 °C 30.21 in /  1022.9 hPa WNW 9.3 mph /  15 km/h 18.4 mph /  29.6 km/h 54 % 0.00 in /  0 mm
23:31 22.4 °F /  -5.3 °C 8.7 °F /  -12.9 °C 30.21 in /  1022.9 hPa NW 2.5 mph /  4 km/h 8.1 mph /  13 km/h 55 % 0.00 in /  0 mm
23:37 22.3 °F /  -5.4 °C 8.2 °F /  -13.2 °C 30.22 in /  1023.2 hPa WSW 10.8 mph /  17.4 km/h 19.6 mph /  31.5 km/h 54 % 0.00 in /  0 mm
23:42 22.3 °F /  -5.4 °C 9.0 °F /  -12.8 °C 30.22 in /  1023.2 hPa NW 7.8 mph /  12.6 km/h 15.0 mph /  24.1 km/h 56 % 0.00 in /  0 mm
23:47 22.3 °F /  -5.4 °C 8.6 °F /  -13 °C 30.23 in /  1023.6 hPa WNW 5.0 mph /  8 km/h 13.8 mph /  22.2 km/h 55 % 0.00 in /  0 mm
23:52 22.2 °F /  -5.4 °C 8.5 °F /  -13.1 °C 30.23 in /  1023.6 hPa WNW 7.0 mph /  11.3 km/h 11.5 mph /  18.5 km/h 55 % 0.00 in /  0 mm
23:57 22.2 °F /  -5.4 °C 9.3 °F /  -12.6 °C 30.23 in /  1023.6 hPa WNW 7.2 mph /  11.6 km/h 10.4 mph /  16.7 km/h 57 % 0.00 in /  0 mm
Crab Meadow Weather
Compliments of Weather Underground - 3 mb

Script developed by  Jim McMurry - jmcmurry@mwt.net Adapted for the template by  Wim van der Kuil - Leuven-Template.eu

Astronomy: One day on Jupiter is only 9 hours and 55 minutes.